createdAt,value
2023-03-23T15:59:32.815Z,69.46
2023-03-23T16:02:00.704Z,68.41
2023-03-23T16:04:28.967Z,67.49
2023-03-23T16:06:59.026Z,68.05
2023-03-23T16:09:26.890Z,70.82
2023-03-23T16:11:54.581Z,72.93
2023-03-23T16:14:23.648Z,73.64
2023-03-23T16:16:52.897Z,72.82
2023-03-23T16:19:24.466Z,75.28
2023-03-23T16:21:52.352Z,75.96
2023-03-23T16:24:20.081Z,74.26
2023-03-23T16:26:47.829Z,73.14
2023-03-23T16:29:33.845Z,74.77
2023-03-23T16:32:06.868Z,77.19
2023-03-23T16:34:35.644Z,76.92
2023-03-23T16:37:03.388Z,76.90
2023-03-23T16:39:31.139Z,75.96
2023-03-23T16:41:58.818Z,77.92
2023-03-23T16:44:26.629Z,78.20
2023-03-23T16:46:54.303Z,80.17
2023-03-23T16:49:23.348Z,81.63
2023-03-23T16:51:51.266Z,82.33
2023-03-23T16:54:19.003Z,80.51
2023-03-23T16:56:48.113Z,79.52
2023-03-23T16:59:15.820Z,80.49
2023-03-23T17:01:43.613Z,82.21
2023-03-23T17:04:11.365Z,81.49
2023-03-23T17:06:40.438Z,82.27
2023-03-23T17:09:08.376Z,83.48
2023-03-23T17:11:36.146Z,84.42
2023-03-23T17:14:03.891Z,85.41
2023-03-23T17:16:31.712Z,85.77
2023-03-23T17:18:59.448Z,85.38
2023-03-23T17:21:27.122Z,85.64
2023-03-23T17:23:56.091Z,86.84
2023-03-23T17:26:23.782Z,86.45
2023-03-23T17:28:51.508Z,87.92
2023-03-23T17:31:19.316Z,89.66
2023-03-23T17:33:47.006Z,89.36
2023-03-23T17:36:14.735Z,91.13
2023-03-23T17:38:42.443Z,93.06
2023-03-23T17:41:11.649Z,93.12
2023-03-23T17:43:40.577Z,92.56
2023-03-23T17:46:09.376Z,93.02
2023-03-23T17:48:37.412Z,92.61
2023-03-23T17:51:05.848Z,93.98
2023-03-23T17:53:35.587Z,93.42
2023-03-23T17:56:03.782Z,95.12
2023-03-23T17:58:33.089Z,94.59
2023-03-23T18:01:00.827Z,94.48
2023-03-23T18:03:28.752Z,96.73
2023-03-23T18:05:59.707Z,97.43
2023-03-23T18:08:27.984Z,97.02
2023-03-23T18:10:56.517Z,99.43
2023-03-23T18:13:26.126Z,98.37
2023-03-23T18:15:56.303Z,100.00
2023-03-23T18:18:25.061Z,100.00
2023-03-23T18:20:56.424Z,100.00
2023-03-23T18:23:24.120Z,100.00
2023-03-23T18:25:53.631Z,100.00
2023-03-23T18:28:21.509Z,100.00
2023-03-23T18:30:49.509Z,100.00
2023-03-23T18:33:20.355Z,100.00
2023-03-23T18:35:48.813Z,100.00
2023-03-23T18:38:16.693Z,100.00
2023-03-23T18:40:44.867Z,100.00
2023-03-23T18:43:13.000Z,100.00
2023-03-23T18:45:41.030Z,100.00
2023-03-23T18:48:09.550Z,100.00
2023-03-23T18:50:38.672Z,100.00
2023-03-23T18:53:07.039Z,100.00
2023-03-23T18:55:34.699Z,100.00
2023-03-23T18:58:02.843Z,100.00
2023-03-23T19:00:30.964Z,100.00
2023-03-23T19:02:58.715Z,100.00
2023-03-23T19:05:27.479Z,100.00
2023-03-23T19:07:56.633Z,100.00
2023-03-23T19:10:24.414Z,100.00
2023-03-23T19:12:52.320Z,100.00
2023-03-23T19:15:19.999Z,100.00
2023-03-23T19:17:48.114Z,100.00
2023-03-23T19:20:26.898Z,100.00
2023-03-23T19:23:04.987Z,100.00
2023-03-23T19:25:33.227Z,100.00
2023-03-23T19:30:31.678Z,100.00
2023-03-23T19:32:59.381Z,100.00
2023-03-23T19:35:27.181Z,100.00
2023-03-23T19:37:54.903Z,100.00
2023-03-23T19:40:39.544Z,100.00
2023-03-23T19:43:11.590Z,100.00
2023-03-23T19:45:41.822Z,100.00
2023-03-23T19:48:10.142Z,100.00
2023-03-23T19:50:39.823Z,100.00
2023-03-23T19:53:07.567Z,100.00
2023-03-23T19:55:36.888Z,100.00
2023-03-23T19:58:05.123Z,100.00
2023-03-23T20:00:34.925Z,100.00
2023-03-23T20:03:03.808Z,100.00
2023-03-23T20:05:31.592Z,100.00
2023-03-23T20:07:59.301Z,100.00
2023-03-23T20:10:26.975Z,100.00
2023-03-23T20:12:56.067Z,100.00
2023-03-23T20:15:24.474Z,100.00
2023-03-23T20:17:53.103Z,100.00
2023-03-23T20:20:21.036Z,100.00
2023-03-23T20:22:50.013Z,100.00
2023-03-23T20:25:19.908Z,100.00
2023-03-23T20:27:47.702Z,100.00
2023-03-23T20:30:18.837Z,100.00
2023-03-23T20:32:47.430Z,100.00
2023-03-23T20:35:16.287Z,100.00
2023-03-23T20:37:44.615Z,100.00
2023-03-23T20:40:14.638Z,100.00
2023-03-23T20:42:44.102Z,100.00
2023-03-23T20:45:13.314Z,100.00
2023-03-23T20:47:42.650Z,100.00
2023-03-23T20:50:12.364Z,100.00
2023-03-23T20:52:41.718Z,100.00
2023-03-23T20:55:09.698Z,100.00
2023-03-23T20:57:38.799Z,100.00
2023-03-23T21:00:09.425Z,100.00
2023-03-23T21:02:37.276Z,100.00
2023-03-23T21:05:07.321Z,100.00
2023-03-23T21:07:36.248Z,100.00
2023-03-23T21:10:04.896Z,100.00
2023-03-23T21:12:32.936Z,100.00
2023-03-23T21:15:00.979Z,100.00
2023-03-23T21:17:28.938Z,100.00
2023-03-23T21:19:56.859Z,100.00
2023-03-23T21:22:25.958Z,100.00
2023-03-23T21:24:53.600Z,100.00
2023-03-23T21:27:21.249Z,100.00
2023-03-23T21:29:48.984Z,100.00
2023-03-23T21:32:16.800Z,100.00
2023-03-23T21:34:46.681Z,100.00
2023-03-23T21:37:15.974Z,100.00
2023-03-23T21:39:45.528Z,100.00
2023-03-23T21:42:14.607Z,100.00
2023-03-23T21:44:43.471Z,100.00
2023-03-23T21:47:12.744Z,100.00
2023-03-23T21:49:41.428Z,100.00
2023-03-23T21:52:09.106Z,100.00
2023-03-23T21:54:37.032Z,100.00
2023-03-23T21:57:06.155Z,100.00
2023-03-23T21:59:34.269Z,100.00
2023-03-23T22:02:02.240Z,100.00
2023-03-23T22:04:30.072Z,100.00
2023-03-23T22:06:57.896Z,100.00
2023-03-23T22:09:26.266Z,100.00
2023-03-23T22:11:54.127Z,100.00
2023-03-23T22:14:23.632Z,100.00
2023-03-23T22:16:51.543Z,100.00
2023-03-23T22:19:19.305Z,100.00
2023-03-23T22:21:47.292Z,100.00
2023-03-23T22:24:15.121Z,100.00
2023-03-23T22:26:42.978Z,100.00
2023-03-23T22:29:11.540Z,100.00
2023-03-23T22:31:41.889Z,100.00
2023-03-23T22:34:09.909Z,100.00
2023-03-23T22:36:38.878Z,100.00
2023-03-23T22:39:07.279Z,100.00
2023-03-23T22:41:36.943Z,100.00
2023-03-23T22:44:05.218Z,100.00
2023-03-23T22:46:32.980Z,100.00
2023-03-23T22:49:02.109Z,100.00
2023-03-23T22:51:29.919Z,100.00
2023-03-23T22:53:57.715Z,100.00
2023-03-23T22:56:25.816Z,100.00
2023-03-23T22:58:54.519Z,100.00
2023-03-23T23:01:23.530Z,100.00
2023-03-23T23:03:51.676Z,100.00
2023-03-23T23:06:21.541Z,100.00
2023-03-23T23:08:49.848Z,100.00
2023-03-23T23:11:19.238Z,100.00
2023-03-23T23:13:47.547Z,100.00
2023-03-23T23:16:17.189Z,100.00
2023-03-23T23:18:46.531Z,100.00
2023-03-23T23:21:18.357Z,100.00
2023-03-23T23:23:48.024Z,100.00
2023-03-23T23:26:16.754Z,100.00
2023-03-23T23:28:45.223Z,100.00
2023-03-23T23:31:26.199Z,100.00
2023-03-23T23:33:55.375Z,100.00
2023-03-23T23:36:23.491Z,100.00
2023-03-23T23:38:52.639Z,100.00
2023-03-23T23:41:20.629Z,100.00
2023-03-23T23:43:48.439Z,100.00
2023-03-23T23:46:16.338Z,100.00
2023-03-23T23:48:44.747Z,100.00
2023-03-23T23:51:15.214Z,100.00
2023-03-23T23:53:44.109Z,100.00
2023-03-23T23:56:14.530Z,100.00
2023-03-23T23:58:42.296Z,100.00
